Time;durP1;ratioP1;P1;durP2;ratioP2;P2;SDS_P1;SDS_P2;PMS_P1;PMS_P2;Temp;Humidity;BMP_temperature;BMP_pressure;BME280_temperature;BME280_humidity;BME280_pressure;Samples;Min_cycle;Max_cycle;Signal;HPM_P1;HPM_P2
2023/06/24 00:01:03;;;;;;;11.23;5.80;;;;;;;;;;5027903;28;20041;-72
2023/06/24 00:03:29;;;;;;;8.38;5.65;;;;;;;;;;5025229;28;20259;-71
2023/06/24 00:05:56;;;;;;;8.68;4.57;;;;;;;;;;5058379;28;20471;-71
2023/06/24 00:08:23;;;;;;;9.32;4.45;;;;;;;;;;5027387;28;20026;-71
2023/06/24 00:10:49;;;;;;;9.18;5.32;;;;;;;;;;5022424;28;20120;-70
2023/06/24 00:13:16;;;;;;;5.53;4.93;;;;;;;;;;5024874;28;20069;-71
2023/06/24 00:15:42;;;;;;;6.15;4.20;;;;;;;;;;5021777;28;20467;-71
2023/06/24 00:18:09;;;;;;;6.35;4.43;;;;;;;;;;5022996;28;20034;-71
2023/06/24 00:20:35;;;;;;;5.65;4.30;;;;;;;;;;5021159;28;20032;-71
2023/06/24 00:23:02;;;;;;;5.22;4.13;;;;;;;;;;5024304;28;20501;-70
2023/06/24 00:25:28;;;;;;;7.82;4.55;;;;;;;;;;5021671;28;20033;-72
2023/06/24 00:27:54;;;;;;;5.28;4.72;;;;;;;;;;5025396;28;20037;-70
2023/06/24 00:30:20;;;;;;;7.07;4.60;;;;;;;;;;5054351;28;20029;-71
2023/06/24 00:32:46;;;;;;;6.30;5.07;;;;;;;;;;5023405;28;20029;-71
2023/06/24 00:35:13;;;;;;;7.28;4.70;;;;;;;;;;5022574;28;20411;-71
2023/06/24 00:37:39;;;;;;;6.53;5.45;;;;;;;;;;5023511;28;20040;-71
2023/06/24 00:40:05;;;;;;;10.18;6.43;;;;;;;;;;5023123;28;20022;-71
2023/06/24 00:42:31;;;;;;;6.20;5.60;;;;;;;;;;5025992;28;20120;-71
2023/06/24 00:44:57;;;;;;;9.98;5.93;;;;;;;;;;5024981;28;20044;-71
2023/06/24 00:47:24;;;;;;;10.02;6.75;;;;;;;;;;5025476;28;20030;-71
2023/06/24 00:49:50;;;;;;;7.35;5.85;;;;;;;;;;5019081;28;20101;-71
2023/06/24 00:52:16;;;;;;;12.25;6.20;;;;;;;;;;5023637;28;20022;-71
2023/06/24 00:54:45;;;;;;;12.32;5.82;;;;;;;;;;5023589;28;20483;-71
2023/06/24 00:57:13;;;;;;;10.90;6.20;;;;;;;;;;5021159;28;20075;-71
2023/06/24 00:59:39;;;;;;;8.57;6.43;;;;;;;;;;5021936;28;20396;-71
2023/06/24 01:02:05;;;;;;;10.07;7.18;;;;;;;;;;5024646;28;20053;-71
2023/06/24 01:04:33;;;;;;;13.85;6.55;;;;;;;;;;5021257;28;20034;-71
2023/06/24 01:06:59;;;;;;;9.38;6.78;;;;;;;;;;5023446;28;20029;-70
2023/06/24 01:09:26;;;;;;;9.30;7.07;;;;;;;;;;5023072;28;20057;-70
2023/06/24 01:11:52;;;;;;;10.18;7.38;;;;;;;;;;5026000;28;20021;-71
2023/06/24 01:14:20;;;;;;;13.27;6.90;;;;;;;;;;5019407;28;20434;-71
2023/06/24 01:17:09;;;;;;;7.72;6.97;;;;;;;;;;5018641;28;20022;-71
2023/06/24 01:19:41;;;;;;;7.72;6.32;;;;;;;;;;5020110;28;20065;-71
2023/06/24 01:22:12;;;;;;;13.32;8.18;;;;;;;;;;5019475;28;20084;-71
2023/06/24 01:24:48;;;;;;;8.23;7.32;;;;;;;;;;5024092;28;20033;-71
2023/06/24 01:27:44;;;;;;;11.75;8.30;;;;;;;;;;5023900;28;20393;-71
2023/06/24 01:30:29;;;;;;;11.10;7.97;;;;;;;;;;4981145;28;20058;-71
2023/06/24 01:32:57;;;;;;;10.93;7.50;;;;;;;;;;5022002;28;20029;-71
2023/06/24 01:35:26;;;;;;;11.95;8.27;;;;;;;;;;5020358;28;20028;-72
2023/06/24 01:37:53;;;;;;;10.43;7.93;;;;;;;;;;5024834;28;20029;-72
2023/06/24 01:40:31;;;;;;;13.63;7.85;;;;;;;;;;5024207;28;20121;-72
2023/06/24 01:42:58;;;;;;;11.43;8.40;;;;;;;;;;5019371;28;20473;-72
2023/06/24 01:45:29;;;;;;;12.10;8.10;;;;;;;;;;5021657;28;20048;-71
2023/06/24 01:48:01;;;;;;;10.32;7.70;;;;;;;;;;5022314;28;20099;-72
2023/06/24 01:50:28;;;;;;;11.07;8.43;;;;;;;;;;5022909;28;20456;-71
2023/06/24 01:52:55;;;;;;;11.02;8.15;;;;;;;;;;5023758;28;20029;-72
2023/06/24 01:55:21;;;;;;;11.75;7.93;;;;;;;;;;5021543;28;20107;-72
2023/06/24 01:57:49;;;;;;;10.27;8.57;;;;;;;;;;5025267;28;20026;-72
2023/06/24 02:00:16;;;;;;;9.25;8.05;;;;;;;;;;5023713;28;20037;-72
2023/06/24 02:02:42;;;;;;;9.45;7.97;;;;;;;;;;5023259;28;20104;-71
2023/06/24 02:05:09;;;;;;;11.40;8.82;;;;;;;;;;5026539;28;20051;-72
2023/06/24 02:07:36;;;;;;;10.35;8.52;;;;;;;;;;5021872;28;20034;-71
2023/06/24 02:10:02;;;;;;;11.45;8.00;;;;;;;;;;5020082;28;20032;-71
2023/06/24 02:12:29;;;;;;;12.48;8.60;;;;;;;;;;5020545;28;20026;-71
2023/06/24 02:14:56;;;;;;;10.18;8.27;;;;;;;;;;5056829;28;20029;-71
2023/06/24 02:17:24;;;;;;;17.98;9.23;;;;;;;;;;5052545;28;20041;-71
2023/06/24 02:19:51;;;;;;;14.30;8.88;;;;;;;;;;5018266;28;20092;-71
2023/06/24 02:22:17;;;;;;;9.95;8.18;;;;;;;;;;5019891;28;20034;-71
2023/06/24 02:24:44;;;;;;;12.32;9.30;;;;;;;;;;5020607;28;20037;-71
2023/06/24 02:27:11;;;;;;;11.25;8.77;;;;;;;;;;5021699;28;20041;-71
2023/06/24 02:29:38;;;;;;;11.25;8.85;;;;;;;;;;5020705;28;20446;-71
2023/06/24 02:32:05;;;;;;;13.18;9.35;;;;;;;;;;5017873;28;20037;-71
2023/06/24 02:34:31;;;;;;;10.45;9.15;;;;;;;;;;5019974;28;20077;-72
2023/06/24 02:36:57;;;;;;;12.77;8.68;;;;;;;;;;5023589;28;20033;-71
2023/06/24 02:39:23;;;;;;;12.57;9.07;;;;;;;;;;5027301;28;20116;-71
2023/06/24 02:41:49;;;;;;;15.20;9.73;;;;;;;;;;5023712;28;20139;-71
2023/06/24 02:44:15;;;;;;;21.20;8.70;;;;;;;;;;5026325;28;20375;-71
2023/06/24 02:46:42;;;;;;;14.18;9.77;;;;;;;;;;5027445;28;20025;-71
2023/06/24 02:49:09;;;;;;;11.98;9.30;;;;;;;;;;5025373;28;20419;-70
2023/06/24 02:51:35;;;;;;;12.77;9.02;;;;;;;;;;5029517;28;20034;-71
2023/06/24 02:54:02;;;;;;;10.23;8.80;;;;;;;;;;5022998;28;20033;-70
2023/06/24 02:56:29;;;;;;;11.80;9.80;;;;;;;;;;5025791;28;20044;-70
2023/06/24 02:58:55;;;;;;;11.82;9.27;;;;;;;;;;5026907;28;20099;-71
2023/06/24 03:01:24;;;;;;;16.13;10.55;;;;;;;;;;5026955;28;20034;-70
2023/06/24 03:03:52;;;;;;;10.65;9.50;;;;;;;;;;5027198;28;20109;-72
2023/06/24 03:06:19;;;;;;;14.68;8.93;;;;;;;;;;5024753;28;20034;-69
2023/06/24 03:08:45;;;;;;;11.35;9.30;;;;;;;;;;5024408;28;20032;-71
2023/06/24 03:11:13;;;;;;;13.57;9.10;;;;;;;;;;5024052;28;20482;-71
2023/06/24 03:13:39;;;;;;;14.05;9.68;;;;;;;;;;5031557;28;20556;-72
2023/06/24 03:16:06;;;;;;;12.02;9.18;;;;;;;;;;5029256;28;20123;-71
2023/06/24 03:18:32;;;;;;;11.52;9.38;;;;;;;;;;5030627;28;20087;-72
2023/06/24 03:20:58;;;;;;;11.85;9.77;;;;;;;;;;5025229;28;20037;-72
2023/06/24 03:23:24;;;;;;;10.88;8.93;;;;;;;;;;5028739;28;20113;-72
2023/06/24 03:25:50;;;;;;;11.05;9.15;;;;;;;;;;5032006;28;20544;-72
2023/06/24 03:28:16;;;;;;;13.70;9.18;;;;;;;;;;5036782;28;20026;-72
2023/06/24 03:30:42;;;;;;;12.63;9.80;;;;;;;;;;5033498;28;20025;-72
2023/06/24 03:33:08;;;;;;;12.35;9.15;;;;;;;;;;5030064;28;20564;-72
2023/06/24 03:35:34;;;;;;;11.20;9.70;;;;;;;;;;5039335;28;20029;-72
2023/06/24 03:38:00;;;;;;;11.65;9.13;;;;;;;;;;5030693;28;20045;-70
2023/06/24 03:40:26;;;;;;;12.73;9.35;;;;;;;;;;5029536;28;20037;-74
2023/06/24 03:42:52;;;;;;;14.43;9.32;;;;;;;;;;5017845;28;20104;-74
2023/06/24 03:45:18;;;;;;;12.38;9.32;;;;;;;;;;5024601;28;20468;-70
2023/06/24 03:47:44;;;;;;;11.32;9.25;;;;;;;;;;5038069;28;20479;-73
2023/06/24 03:50:10;;;;;;;13.95;9.20;;;;;;;;;;5020535;28;20049;-74
2023/06/24 03:52:36;;;;;;;11.15;9.32;;;;;;;;;;5032002;28;20030;-74
2023/06/24 03:55:04;;;;;;;13.48;8.80;;;;;;;;;;5028414;28;20472;-73
2023/06/24 03:57:30;;;;;;;10.60;9.30;;;;;;;;;;5028462;28;20079;-73
2023/06/24 03:59:56;;;;;;;10.88;9.05;;;;;;;;;;5026216;28;20112;-74
2023/06/24 04:02:22;;;;;;;12.68;8.32;;;;;;;;;;5023801;28;20108;-74
2023/06/24 04:04:50;;;;;;;10.57;9.48;;;;;;;;;;5025364;28;20038;-73
2023/06/24 04:07:26;;;;;;;12.15;9.90;;;;;;;;;;5026124;28;20043;-74
2023/06/24 04:09:54;;;;;;;13.48;9.93;;;;;;;;;;5020005;28;20033;-73
2023/06/24 04:12:21;;;;;;;13.82;8.82;;;;;;;;;;5024079;28;20037;-73
2023/06/24 04:14:47;;;;;;;13.65;9.82;;;;;;;;;;5024407;28;20402;-74
2023/06/24 04:17:13;;;;;;;14.38;10.30;;;;;;;;;;5018141;28;20109;-73
2023/06/24 04:19:39;;;;;;;13.77;9.80;;;;;;;;;;5016271;28;20112;-73
2023/06/24 04:22:05;;;;;;;17.50;10.15;;;;;;;;;;5027336;28;20116;-73
2023/06/24 04:24:31;;;;;;;16.80;10.18;;;;;;;;;;5024901;28;20099;-74
2023/06/24 04:26:58;;;;;;;12.55;10.00;;;;;;;;;;5021964;28;20033;-74
2023/06/24 04:29:24;;;;;;;12.98;9.70;;;;;;;;;;5022756;28;20029;-74
2023/06/24 04:31:50;;;;;;;13.88;10.30;;;;;;;;;;5027924;28;20029;-74
2023/06/24 04:34:16;;;;;;;15.98;9.93;;;;;;;;;;5022603;28;20053;-74
2023/06/24 04:36:42;;;;;;;17.88;10.48;;;;;;;;;;5022270;28;20051;-75
2023/06/24 04:39:08;;;;;;;11.40;9.93;;;;;;;;;;5022448;28;20096;-75
2023/06/24 04:41:34;;;;;;;11.88;9.48;;;;;;;;;;5022801;28;20049;-75
2023/06/24 04:44:00;;;;;;;11.45;9.00;;;;;;;;;;5021420;28;20549;-75
2023/06/24 04:46:26;;;;;;;13.18;9.60;;;;;;;;;;5023054;28;20100;-75
2023/06/24 04:48:52;;;;;;;12.02;10.18;;;;;;;;;;5024922;28;20430;-75
2023/06/24 04:51:18;;;;;;;15.38;10.15;;;;;;;;;;5024320;28;20084;-75
2023/06/24 04:53:45;;;;;;;16.33;10.48;;;;;;;;;;5020065;28;20048;-74
2023/06/24 04:56:11;;;;;;;13.48;9.85;;;;;;;;;;5055302;28;20029;-74
2023/06/24 04:58:37;;;;;;;14.48;10.80;;;;;;;;;;5022671;28;20360;-75
2023/06/24 05:01:03;;;;;;;13.68;10.63;;;;;;;;;;5030784;28;20029;-74
2023/06/24 05:03:29;;;;;;;13.43;10.98;;;;;;;;;;5018544;28;20037;-75
2023/06/24 05:05:55;;;;;;;11.98;10.18;;;;;;;;;;5022640;28;20034;-74
2023/06/24 05:08:21;;;;;;;15.32;9.80;;;;;;;;;;5023900;28;20384;-76
2023/06/24 05:10:47;;;;;;;11.85;9.82;;;;;;;;;;5022507;28;20034;-75
2023/06/24 05:13:13;;;;;;;13.82;9.40;;;;;;;;;;5018846;28;20033;-75
2023/06/24 05:15:39;;;;;;;14.07;10.45;;;;;;;;;;5055958;28;20040;-75
2023/06/24 05:18:05;;;;;;;12.10;10.20;;;;;;;;;;5023522;28;20419;-73
2023/06/24 05:20:31;;;;;;;11.88;9.85;;;;;;;;;;5021439;28;20060;-75
2023/06/24 05:22:57;;;;;;;12.65;10.30;;;;;;;;;;5020766;28;20069;-74
2023/06/24 05:25:23;;;;;;;13.50;10.98;;;;;;;;;;5006863;28;20034;-75
2023/06/24 05:27:49;;;;;;;11.80;10.60;;;;;;;;;;5025451;28;20034;-75
2023/06/24 05:30:15;;;;;;;11.60;9.27;;;;;;;;;;5021328;28;20090;-75
2023/06/24 05:32:41;;;;;;;12.25;10.30;;;;;;;;;;5023395;28;20025;-73
2023/06/24 05:35:07;;;;;;;17.55;11.13;;;;;;;;;;5023797;28;20045;-74
2023/06/24 05:37:34;;;;;;;12.45;10.68;;;;;;;;;;5020059;28;20034;-73
2023/06/24 05:40:01;;;;;;;13.73;10.30;;;;;;;;;;5023691;28;20041;-74
2023/06/24 05:42:27;;;;;;;12.65;10.13;;;;;;;;;;5016326;28;20033;-73
2023/06/24 05:44:53;;;;;;;14.02;10.15;;;;;;;;;;5021491;28;20108;-73
2023/06/24 05:47:20;;;;;;;15.45;10.77;;;;;;;;;;5020335;28;20040;-74
2023/06/24 05:49:46;;;;;;;13.00;10.27;;;;;;;;;;5023287;28;20028;-74
2023/06/24 05:52:12;;;;;;;13.90;9.98;;;;;;;;;;5020220;28;20029;-74
2023/06/24 05:54:38;;;;;;;15.68;10.75;;;;;;;;;;5055339;28;20113;-74
2023/06/24 05:57:09;;;;;;;18.85;10.15;;;;;;;;;;5020769;28;20133;-74
2023/06/24 05:59:35;;;;;;;10.95;9.60;;;;;;;;;;5024140;28;20033;-74
2023/06/24 06:02:03;;;;;;;12.20;9.25;;;;;;;;;;5053102;28;20084;-74
2023/06/24 06:04:29;;;;;;;12.45;8.40;;;;;;;;;;5020280;28;20206;-77
2023/06/24 06:06:55;;;;;;;17.33;8.68;;;;;;;;;;5010761;28;20359;-82
2023/06/24 06:09:22;;;;;;;11.60;8.60;;;;;;;;;;5019691;28;20068;-81
2023/06/24 06:11:48;;;;;;;11.63;7.95;;;;;;;;;;5023628;28;20048;-82
2023/06/24 06:14:14;;;;;;;16.27;8.77;;;;;;;;;;5022477;28;20391;-81
2023/06/24 06:16:40;;;;;;;12.18;8.80;;;;;;;;;;5051846;28;20033;-82
2023/06/24 06:19:06;;;;;;;14.77;10.80;;;;;;;;;;5020822;28;20110;-76
2023/06/24 06:21:32;;;;;;;15.75;9.68;;;;;;;;;;5024455;28;20033;-76
2023/06/24 06:23:58;;;;;;;12.43;8.77;;;;;;;;;;5036403;28;20037;-76
2023/06/24 06:26:24;;;;;;;10.32;8.85;;;;;;;;;;5027388;28;20041;-75
2023/06/24 06:28:53;;;;;;;12.02;9.48;;;;;;;;;;5030788;28;20034;-76
2023/06/24 06:31:19;;;;;;;10.18;8.82;;;;;;;;;;5030080;28;20021;-74
2023/06/24 06:33:45;;;;;;;15.48;9.73;;;;;;;;;;5020693;28;20060;-75
2023/06/24 06:36:11;;;;;;;10.57;9.48;;;;;;;;;;5028860;28;20037;-76
2023/06/24 06:38:37;;;;;;;14.13;9.52;;;;;;;;;;5045771;28;20115;-75
2023/06/24 06:41:03;;;;;;;14.60;10.48;;;;;;;;;;5031214;28;20108;-76
2023/06/24 06:43:29;;;;;;;12.57;9.27;;;;;;;;;;5029685;28;20396;-76
2023/06/24 06:45:56;;;;;;;12.60;9.98;;;;;;;;;;5057677;28;20036;-73
2023/06/24 06:48:22;;;;;;;10.57;9.32;;;;;;;;;;5019016;28;20418;-76
2023/06/24 06:50:48;;;;;;;32.80;23.60;;;;;;;;;;5018734;28;20475;-75
2023/06/24 06:53:14;;;;;;;30.35;20.73;;;;;;;;;;5016323;28;20042;-75
2023/06/24 06:55:40;;;;;;;13.52;10.50;;;;;;;;;;5024640;28;20056;-74
2023/06/24 06:58:06;;;;;;;14.73;9.82;;;;;;;;;;5024976;28;20060;-74
2023/06/24 07:00:32;;;;;;;11.98;8.73;;;;;;;;;;5015768;28;20034;-74
2023/06/24 07:02:58;;;;;;;9.50;8.45;;;;;;;;;;5022649;28;20041;-74
2023/06/24 07:05:24;;;;;;;11.88;8.65;;;;;;;;;;5022385;28;20218;-74
2023/06/24 07:07:50;;;;;;;11.50;8.45;;;;;;;;;;5017654;28;20383;-74
2023/06/24 07:10:17;;;;;;;14.60;8.43;;;;;;;;;;5023189;28;20033;-75
2023/06/24 07:12:43;;;;;;;9.82;8.02;;;;;;;;;;5052434;28;20433;-74
2023/06/24 07:15:10;;;;;;;12.52;8.70;;;;;;;;;;5023817;28;20625;-72
2023/06/24 07:17:36;;;;;;;13.55;9.38;;;;;;;;;;5024752;28;20076;-72
2023/06/24 07:20:02;;;;;;;12.75;8.30;;;;;;;;;;5027242;28;20064;-73
2023/06/24 07:22:30;;;;;;;12.30;7.80;;;;;;;;;;5028658;28;20025;-73
2023/06/24 07:24:56;;;;;;;11.95;8.55;;;;;;;;;;5034020;28;20044;-73
2023/06/24 07:27:22;;;;;;;10.95;8.25;;;;;;;;;;5031467;28;20068;-74
2023/06/24 07:29:48;;;;;;;22.05;15.18;;;;;;;;;;5033074;28;20458;-73
2023/06/24 07:32:14;;;;;;;23.73;16.42;;;;;;;;;;5026782;28;20034;-73
2023/06/24 07:34:40;;;;;;;10.90;7.95;;;;;;;;;;5030763;28;20099;-72
2023/06/24 07:37:06;;;;;;;13.52;7.90;;;;;;;;;;5033601;28;20424;-73
2023/06/24 07:39:32;;;;;;;13.75;7.45;;;;;;;;;;5034281;28;20438;-72
2023/06/24 07:41:58;;;;;;;10.10;7.60;;;;;;;;;;5022756;28;20041;-72
2023/06/24 07:44:24;;;;;;;9.93;7.85;;;;;;;;;;5025918;28;20120;-72
2023/06/24 07:46:51;;;;;;;7.78;6.97;;;;;;;;;;5025676;28;20504;-70
2023/06/24 07:49:17;;;;;;;10.57;7.65;;;;;;;;;;5025248;28;20738;-73
2023/06/24 07:51:44;;;;;;;8.90;7.30;;;;;;;;;;5022473;28;20022;-73
2023/06/24 07:54:10;;;;;;;10.15;7.57;;;;;;;;;;5024261;28;20083;-74
2023/06/24 07:56:36;;;;;;;10.10;6.82;;;;;;;;;;5025613;28;20033;-73
2023/06/24 07:59:03;;;;;;;12.00;8.07;;;;;;;;;;5025587;28;20487;-72
2023/06/24 08:01:29;;;;;;;9.70;6.72;;;;;;;;;;5053045;28;20041;-71
2023/06/24 08:03:55;;;;;;;7.45;6.63;;;;;;;;;;5055522;28;20466;-73
2023/06/24 08:06:21;;;;;;;10.27;6.63;;;;;;;;;;5024871;28;20080;-74
2023/06/24 08:08:47;;;;;;;35.97;21.45;;;;;;;;;;5022477;28;20053;-74
2023/06/24 08:11:13;;;;;;;12.15;8.63;;;;;;;;;;5026294;28;20041;-74
2023/06/24 08:13:39;;;;;;;7.00;5.90;;;;;;;;;;5018453;28;20037;-72
2023/06/24 08:16:06;;;;;;;8.40;6.38;;;;;;;;;;5024383;28;20033;-72
2023/06/24 08:18:33;;;;;;;8.57;5.80;;;;;;;;;;5022625;28;20253;-72
2023/06/24 08:20:59;;;;;;;8.35;6.22;;;;;;;;;;5025693;28;20387;-72
2023/06/24 08:23:25;;;;;;;7.25;6.25;;;;;;;;;;5025470;28;20037;-72
2023/06/24 08:25:51;;;;;;;6.97;5.72;;;;;;;;;;5037732;28;20036;-72
2023/06/24 08:28:17;;;;;;;10.15;6.75;;;;;;;;;;5020359;28;20033;-72
2023/06/24 08:30:43;;;;;;;7.93;5.75;;;;;;;;;;5014031;28;20456;-72
2023/06/24 08:33:09;;;;;;;9.90;7.28;;;;;;;;;;5017601;28;20081;-73
2023/06/24 08:35:35;;;;;;;7.97;6.75;;;;;;;;;;5019872;28;20466;-72
2023/06/24 08:38:01;;;;;;;8.38;6.22;;;;;;;;;;5021237;28;20045;-70
2023/06/24 08:40:28;;;;;;;13.15;6.35;;;;;;;;;;5036398;28;20085;-77
2023/06/24 08:42:54;;;;;;;7.85;5.95;;;;;;;;;;5054007;28;20091;-76
2023/06/24 08:45:20;;;;;;;9.20;6.28;;;;;;;;;;5017453;28;20471;-75
2023/06/24 08:47:48;;;;;;;7.70;5.57;;;;;;;;;;5022165;28;20025;-75
2023/06/24 08:50:14;;;;;;;7.65;5.93;;;;;;;;;;5023230;28;20431;-75
2023/06/24 08:52:44;;;;;;;6.22;4.78;;;28.80;99.90;;;;;;5018941;28;20040;-76
2023/06/24 08:55:13;;;;;;;7.10;5.53;;;;;;;;;;5020625;28;20046;-74
2023/06/24 08:57:40;;;;;;;8.05;5.28;;;;;;;;;;5023340;28;20029;-73
2023/06/24 09:00:10;;;;;;;40.15;31.55;;;;;;;;;;5025075;28;20026;-81
2023/06/24 09:02:38;;;;;;;8.82;7.30;;;;;;;;;;5023247;28;20033;-71
2023/06/24 09:05:05;;;;;;;10.73;5.97;;;;;;;;;;5017523;28;20033;-73
2023/06/24 09:07:31;;;;;;;9.13;4.72;;;;;;;;;;5025998;28;20041;-73
2023/06/24 09:09:57;;;;;;;6.20;4.55;;;;;;;;;;5017384;28;20751;-73
2023/06/24 09:12:24;;;;;;;5.13;4.63;;;;;;;;;;5011961;28;20515;-82
2023/06/24 09:14:51;;;;;;;9.38;5.10;;;;;;;;;;5022318;28;20052;-77
2023/06/24 09:17:17;;;;;;;6.20;5.03;;;;;;;;;;5018808;28;20475;-79
2023/06/24 09:19:44;;;;;;;7.13;5.70;;;;;;;;;;5028232;28;20390;-79
2023/06/24 09:22:16;;;;;;;6.60;5.20;;;;;;;;;;5028574;28;20110;-78
2023/06/24 09:24:44;;;;;;;5.93;4.50;;;;;;;;;;5029668;28;20368;-81
2023/06/24 09:27:12;;;;;;;5.10;4.60;;;;;;;;;;5043815;28;20497;-83
2023/06/24 09:29:38;;;;;;;6.85;4.47;;;;;;;;;;5025624;28;20438;-78
2023/06/24 09:32:05;;;;;;;8.18;4.90;;;;;;;;;;5023704;28;20030;-72
2023/06/24 09:34:31;;;;;;;6.18;3.95;;;;;;;;;;5022665;28;22935;-72
2023/06/24 09:36:58;;;;;;;8.75;4.63;;;;;;;;;;5030191;28;20104;-73
2023/06/24 09:39:29;;;;;;;8.52;4.53;;;;;;;;;;5032055;28;20045;-74
2023/06/24 09:41:55;;;;;;;;;;;;;;;;;;5028691;28;20116;-73
2023/06/24 09:44:21;;;;;;;5.43;3.33;;;;;;;;;;5025469;28;19933;-74
2023/06/24 09:46:47;;;;;;;4.68;3.22;;;;;;;;;;5029326;28;20120;-75
2023/06/24 09:49:13;;;;;;;6.88;3.30;;;;;;;;;;5032395;28;20495;-75
2023/06/24 09:51:40;;;;;;;4.63;3.70;;;;;;;;;;5028567;28;20495;-75
2023/06/24 09:54:06;;;;;;;4.70;4.20;;;;;;;;;;5027563;28;20034;-74
2023/06/24 09:56:39;;;;;;;4.65;3.65;;;;;;;;;;5021766;28;20033;-74
2023/06/24 09:59:05;;;;;;;3.78;3.28;;;;;;;;;;5058457;28;20040;-74
2023/06/24 10:01:32;;;;;;;6.93;3.58;;;;;;;;;;5029391;28;20399;-75
2023/06/24 10:03:59;;;;;;;5.05;3.53;;;;;;;;;;5027879;28;20467;-74
2023/06/24 10:06:28;;;;;;;4.75;3.25;;;;;;;;;;5030611;28;20125;-74
2023/06/24 10:08:54;;;;;;;8.25;4.32;;;;;;;;;;5030270;28;20025;-74
2023/06/24 10:11:21;;;;;;;5.00;3.40;;;;;;;;;;5029481;28;20088;-74
2023/06/24 10:13:47;;;;;;;6.63;4.32;;;;;;;;;;5030070;28;20479;-73
2023/06/24 10:16:15;;;;;;;6.80;4.40;;;;;;;;;;5028320;28;20042;-78
2023/06/24 10:18:41;;;;;;;6.40;4.28;;;;;;;;;;5031246;28;20094;-78
2023/06/24 10:21:08;;;;;;;6.38;4.10;;;;;;;;;;5027092;28;20090;-79
2023/06/24 10:23:53;;;;;;;4.93;3.25;;;;;;;;;;5020638;28;20025;-84
2023/06/24 10:26:23;;;;;;;5.80;2.85;;;;;;;;;;5028028;28;20111;-82
2023/06/24 10:29:08;;;;;;;6.17;3.37;;;;;;;;;;5034288;28;20026;-78
2023/06/24 10:31:40;;;;;;;4.03;2.97;;;;;;;;;;5027910;28;20108;-79
2023/06/24 10:34:25;;;;;;;5.65;2.63;;;;;;;;;;5029967;28;20049;-80
2023/06/24 10:36:55;;;;;;;5.93;2.97;;;;;;;;;;5043523;28;20028;-79
2023/06/24 10:39:57;;;;;;;6.97;2.90;;;31.70;99.90;;;;;;5039435;28;20528;-80
2023/06/24 10:42:26;;;;;;;8.23;4.25;;;;;;;;;;5025799;28;20041;-78
2023/06/24 10:44:52;;;;;;;9.90;4.78;;;;;;;;;;5030485;28;20033;-78
2023/06/24 10:47:19;;;;;;;6.90;3.60;;;;;;;;;;5029610;28;20064;-78
2023/06/24 10:49:45;;;;;;;4.70;3.20;;;;;;;;;;5060963;28;20442;-78
2023/06/24 10:52:11;;;;;;;9.52;3.53;;;;;;;;;;5030661;28;20470;-81
2023/06/24 10:54:41;;;;;;;5.90;2.90;;;;;;;;;;5028583;28;20045;-77
2023/06/24 10:57:07;;;;;;;5.50;3.30;;;;;;;;;;5028404;28;20037;-79
2023/06/24 10:59:43;;;;;;;6.10;2.95;;;;;;;;;;5035651;28;20034;-70
2023/06/24 11:02:10;;;;;;;5.32;3.22;;;;;;;;;;5034083;28;20044;-71
2023/06/24 11:04:46;;;;;;;4.22;2.95;;;;;;;;;;5032743;28;20045;-72
2023/06/24 11:07:12;;;;;;;5.70;2.88;;;;;;;;;;5030714;28;20033;-75
2023/06/24 11:09:38;;;;;;;7.35;3.08;;;;;;;;;;5034389;28;20083;-72
2023/06/24 11:12:05;;;;;;;5.65;3.03;;;;;;;;;;5033053;28;20455;-72
2023/06/24 11:14:33;;;;;;;4.43;2.88;;;;;;;;;;5032141;28;20095;-70
2023/06/24 11:17:01;;;;;;;3.22;2.50;;;;;;;;;;5031292;28;20474;-72
2023/06/24 11:19:27;;;;;;;3.53;2.47;;;;;;;;;;5033091;28;20077;-72
2023/06/24 11:21:53;;;;;;;7.65;2.72;;;;;;;;;;5051683;28;20490;-73
2023/06/24 11:24:19;;;;;;;4.30;3.25;;;;;;;;;;5026093;28;20116;-74
2023/06/24 11:26:46;;;;;;;4.95;3.42;;;;;;;;;;5031783;28;20038;-73
2023/06/24 11:29:13;;;;;;;6.90;3.28;;;;;;;;;;5019442;28;20446;-73
2023/06/24 11:31:39;;;;;;;6.20;3.30;;;;;;;;;;5029890;28;20153;-73
2023/06/24 11:34:05;;;;;;;6.13;3.30;;;;;;;;;;5060578;28;20053;-74
2023/06/24 11:36:31;;;;;;;3.92;2.85;;;;;;;;;;5014174;28;20481;-73
2023/06/24 11:38:57;;;;;;;6.45;3.97;;;;;;;;;;5019383;28;20030;-73
2023/06/24 11:41:25;;;;;;;5.15;3.50;;;;;;;;;;5029628;28;20155;-73
2023/06/24 11:43:51;;;;;;;5.78;3.90;;;;;;;;;;5042098;28;20025;-74
2023/06/24 11:46:26;;;;;;;4.60;3.33;;;;;;;;;;5031597;28;20029;-74
2023/06/24 11:48:53;;;;;;;10.55;4.40;;;;;;;;;;5032829;28;20032;-72
2023/06/24 11:51:19;;;;;;;4.05;3.30;;;;;;;;;;5030073;28;20040;-72
2023/06/24 11:53:46;;;;;;;6.47;3.20;;;;;;;;;;5020789;28;20029;-71
2023/06/24 11:56:12;;;;;;;5.28;3.17;;;;;;;;;;5029422;28;20123;-71
2023/06/24 11:58:38;;;;;;;7.07;3.00;;;;;;;;;;5027452;28;20039;-71
2023/06/24 12:01:08;;;;;;;4.72;3.25;;;;;;;;;;5034314;28;20434;-71
2023/06/24 12:03:34;;;;;;;7.53;3.45;;;;;;;;;;5025157;28;20033;-71
2023/06/24 12:06:00;;;;;;;4.45;3.50;;;;;;;;;;5028814;28;20064;-71
2023/06/24 12:08:26;;;;;;;2.70;2.25;;;;;;;;;;5023236;28;20033;-73
2023/06/24 12:10:53;;;;;;;4.13;2.72;;;;;;;;;;5027886;28;20438;-73
2023/06/24 12:13:19;;;;;;;14.40;11.30;;;;;;;;;;5020970;28;20364;-72
2023/06/24 12:15:45;;;;;;;5.53;3.58;;;;;;;;;;5027655;28;20026;-72
2023/06/24 12:18:13;;;;;;;4.50;2.63;;;;;;;;;;5028912;28;20036;-73
2023/06/24 12:20:39;;;;;;;7.25;3.17;;;;;;;;;;5028783;28;20467;-75
2023/06/24 12:23:05;;;;;;;6.80;2.58;;;;;;;;;;5031437;28;20041;-76
2023/06/24 12:25:32;;;;;;;4.25;2.90;;;;;;;;;;5030626;28;20033;-75
2023/06/24 12:28:01;;;;;;;4.35;2.70;;;;;;;;;;5030975;28;20037;-76
2023/06/24 12:30:27;;;;;;;5.55;2.47;;;;;;;;;;5024591;28;20041;-74
2023/06/24 12:32:53;;;;;;;5.65;2.50;;;;;;;;;;5031279;28;20037;-76
2023/06/24 12:35:19;;;;;;;4.00;2.33;;;;;;;;;;5031625;28;20041;-75
2023/06/24 12:37:45;;;;;;;11.02;2.30;;;;;;;;;;5032324;28;20422;-75
2023/06/24 12:40:11;;;;;;;4.47;2.78;;;;;;;;;;5030646;28;20479;-75
2023/06/24 12:42:37;;;;;;;5.68;2.92;;;;;;;;;;5032641;28;20986;-75
2023/06/24 12:45:03;;;;;;;6.03;2.20;;;;;;;;;;5023102;28;20040;-75
2023/06/24 12:47:29;;;;;;;3.28;2.33;;;;;;;;;;5027591;28;20036;-76
2023/06/24 12:49:55;;;;;;;6.05;2.53;;;;;;;;;;5016794;28;20030;-75
2023/06/24 12:52:22;;;;;;;2.28;2.00;;;;;;;;;;5014902;28;20029;-76
2023/06/24 12:54:48;;;;;;;5.93;2.00;;;;;;;;;;5026682;28;20491;-76
2023/06/24 12:57:14;;;;;;;3.70;2.20;;;;;;;;;;5023322;28;20041;-76
2023/06/24 12:59:41;;;;;;;4.55;2.15;;;;;;;;;;5018268;28;20061;-76
2023/06/24 13:02:07;;;;;;;4.43;2.65;;;;;;;;;;5020489;28;20034;-76
2023/06/24 13:04:33;;;;;;;5.63;2.08;;;;;;;;;;5025587;28;20087;-75
2023/06/24 13:06:59;;;;;;;5.13;2.38;;;;;;;;;;5024779;28;20132;-74
2023/06/24 13:09:25;;;;;;;7.10;2.83;;;;;;;;;;5019541;28;20026;-75
2023/06/24 13:11:51;;;;;;;6.18;3.00;;;;;;;;;;5017902;28;20045;-75
2023/06/24 13:14:17;;;;;;;7.88;3.13;;;;;;;;;;5023512;28;20040;-75
2023/06/24 13:16:43;;;;;;;12.50;3.03;;;;;;;;;;5022527;28;20033;-74
2023/06/24 13:19:09;;;;;;;4.97;2.55;;;;;;;;;;5019035;28;20142;-74
2023/06/24 13:21:35;;;;;;;4.38;2.88;;;;;;;;;;5024071;28;20203;-75
2023/06/24 13:24:01;;;;;;;7.97;3.30;;;;;;;;;;5024085;28;20041;-75
2023/06/24 13:26:27;;;;;;;4.90;3.55;;;;;;;;;;5023545;28;20505;-75
2023/06/24 13:28:54;;;;;;;6.60;3.05;;;;;;;;;;5021350;28;20033;-75
2023/06/24 13:31:20;;;;;;;6.25;2.60;;;;;;;;;;5022047;28;20041;-75
2023/06/24 13:33:46;;;;;;;8.35;3.45;;;;;;;;;;5019966;28;20137;-78
2023/06/24 13:36:26;;;;;;;5.18;2.85;;;;;;;;;;5022090;28;20371;-80
2023/06/24 13:38:52;;;;;;;6.82;2.75;;;;;;;;;;5019603;28;20038;-78
2023/06/24 13:41:18;;;;;;;4.47;2.92;;;;;;;;;;5021353;28;20447;-80
2023/06/24 13:43:44;;;;;;;9.57;7.72;;;;;;;;;;5031414;28;20398;-77
2023/06/24 13:46:10;;;;;;;3.45;2.50;;;;;;;;;;5030881;28;20463;-76
2023/06/24 13:48:36;;;;;;;4.50;2.35;;;;;;;;;;5034504;28;20033;-76
2023/06/24 13:51:02;;;;;;;3.35;1.90;;;;;;;;;;5024289;28;20036;-76
2023/06/24 13:53:28;;;;;;;6.78;2.15;;;;;;;;;;5060768;28;20049;-81
2023/06/24 13:55:54;;;;;;;3.70;1.80;;;;;;;;;;5020706;28;20963;-78
2023/06/24 13:58:20;;;;;;;2.55;2.00;;;;;;;;;;5021082;28;20037;-76
2023/06/24 14:00:46;;;;;;;3.58;2.33;;;;;;;;;;5018006;28;20045;-74
2023/06/24 14:03:12;;;;;;;3.72;2.00;;;;;;;;;;5018836;28;20409;-74
2023/06/24 14:05:38;;;;;;;3.20;2.08;;;;;;;;;;5020858;28;20044;-75
2023/06/24 14:08:04;;;;;;;6.28;2.35;;;;;;;;;;5045622;28;20033;-75
2023/06/24 14:10:30;;;;;;;3.08;1.98;;;;;;;;;;5029372;28;20038;-75
2023/06/24 14:12:56;;;;;;;2.53;1.83;;;;;;;;;;5020556;28;20033;-75
2023/06/24 14:15:22;;;;;;;4.45;1.95;;;;;;;;;;5019798;28;20037;-75
2023/06/24 14:17:48;;;;;;;3.78;2.00;;;;;;;;;;5019253;28;20022;-75
2023/06/24 14:20:14;;;;;;;4.60;1.73;;;;;;;;;;5021773;28;20040;-75
2023/06/24 14:22:40;;;;;;;4.05;2.15;;;;;;;;;;5022314;28;20033;-82
2023/06/24 14:25:07;;;;;;;3.47;2.15;;;;;;;;;;5020910;28;20072;-81
2023/06/24 14:27:33;;;;;;;3.17;2.05;;;;;;;;;;5026125;28;20041;-81
2023/06/24 14:29:59;;;;;;;5.40;1.92;;;;;;;;;;5030036;28;20083;-80
2023/06/24 14:32:27;;;;;;;3.13;1.90;;;;;;;;;;5028903;28;20446;-81
2023/06/24 14:34:53;;;;;;;4.90;2.00;;;;;;;;;;5030569;28;20058;-80